sensor_id;sensor_type;location;lat;lon;timestamp;temperature;humidity
12588;DHT22;6359;51.450;7.346;2023-02-15T00:00:08;2.00;99.90
12588;DHT22;6359;51.450;7.346;2023-02-15T00:02:36;1.90;99.90
12588;DHT22;6359;51.450;7.346;2023-02-15T00:05:04;2.00;99.90
12588;DHT22;6359;51.450;7.346;2023-02-15T00:07:32;2.20;99.90
12588;DHT22;6359;51.450;7.346;2023-02-15T00:09:59;2.20;99.90
12588;DHT22;6359;51.450;7.346;2023-02-15T00:12:26;2.20;99.90
12588;DHT22;6359;51.450;7.346;2023-02-15T00:14:53;2.40;99.90
12588;DHT22;6359;51.450;7.346;2023-02-15T00:17:20;2.50;99.90
12588;DHT22;6359;51.450;7.346;2023-02-15T00:19:47;2.60;99.90
12588;DHT22;6359;51.450;7.346;2023-02-15T00:22:14;2.50;99.90
12588;DHT22;6359;51.450;7.346;2023-02-15T00:24:42;2.50;99.90
12588;DHT22;6359;51.450;7.346;2023-02-15T00:27:09;2.50;99.90
12588;DHT22;6359;51.450;7.346;2023-02-15T00:29:36;2.50;99.90
12588;DHT22;6359;51.450;7.346;2023-02-15T00:32:03;2.60;99.90
12588;DHT22;6359;51.450;7.346;2023-02-15T00:34:30;2.60;99.90
12588;DHT22;6359;51.450;7.346;2023-02-15T00:36:57;2.70;99.90
12588;DHT22;6359;51.450;7.346;2023-02-15T00:39:24;2.70;99.90
12588;DHT22;6359;51.450;7.346;2023-02-15T00:41:54;2.60;99.90
12588;DHT22;6359;51.450;7.346;2023-02-15T00:44:20;2.40;99.90
12588;DHT22;6359;51.450;7.346;2023-02-15T00:46:47;2.20;99.90
12588;DHT22;6359;51.450;7.346;2023-02-15T00:49:14;2.00;99.90
12588;DHT22;6359;51.450;7.346;2023-02-15T00:51:41;1.80;99.90
12588;DHT22;6359;51.450;7.346;2023-02-15T00:54:08;1.70;99.90
12588;DHT22;6359;51.450;7.346;2023-02-15T00:56:35;1.60;99.90
12588;DHT22;6359;51.450;7.346;2023-02-15T00:59:03;1.80;99.90
12588;DHT22;6359;51.450;7.346;2023-02-15T01:01:30;2.00;99.90
12588;DHT22;6359;51.450;7.346;2023-02-15T01:03:57;2.00;99.90
12588;DHT22;6359;51.450;7.346;2023-02-15T01:06:24;2.00;99.90
12588;DHT22;6359;51.450;7.346;2023-02-15T01:08:51;1.90;99.90
12588;DHT22;6359;51.450;7.346;2023-02-15T01:11:19;1.90;99.90
12588;DHT22;6359;51.450;7.346;2023-02-15T01:13:48;1.80;99.90
12588;DHT22;6359;51.450;7.346;2023-02-15T01:16:17;1.80;99.90
12588;DHT22;6359;51.450;7.346;2023-02-15T01:18:44;1.90;99.90
12588;DHT22;6359;51.450;7.346;2023-02-15T01:21:12;1.90;99.90
12588;DHT22;6359;51.450;7.346;2023-02-15T01:23:40;1.90;99.90
12588;DHT22;6359;51.450;7.346;2023-02-15T01:26:07;1.80;99.90
12588;DHT22;6359;51.450;7.346;2023-02-15T01:28:34;1.70;99.90
12588;DHT22;6359;51.450;7.346;2023-02-15T01:31:05;1.60;99.90
12588;DHT22;6359;51.450;7.346;2023-02-15T01:33:34;1.50;99.90
12588;DHT22;6359;51.450;7.346;2023-02-15T01:36:02;1.50;99.90
12588;DHT22;6359;51.450;7.346;2023-02-15T01:38:29;1.50;99.90
12588;DHT22;6359;51.450;7.346;2023-02-15T01:40:56;1.70;99.90
12588;DHT22;6359;51.450;7.346;2023-02-15T01:43:47;1.80;99.90
12588;DHT22;6359;51.450;7.346;2023-02-15T01:46:16;1.80;99.90
12588;DHT22;6359;51.450;7.346;2023-02-15T01:48:47;1.60;99.90
12588;DHT22;6359;51.450;7.346;2023-02-15T01:51:17;1.50;99.90
12588;DHT22;6359;51.450;7.346;2023-02-15T01:53:48;1.30;99.90
12588;DHT22;6359;51.450;7.346;2023-02-15T01:56:19;1.30;99.90
12588;DHT22;6359;51.450;7.346;2023-02-15T01:58:49;1.20;99.90
12588;DHT22;6359;51.450;7.346;2023-02-15T02:01:18;1.10;99.90
12588;DHT22;6359;51.450;7.346;2023-02-15T02:03:56;1.00;99.90
12588;DHT22;6359;51.450;7.346;2023-02-15T02:06:25;0.90;99.90
12588;DHT22;6359;51.450;7.346;2023-02-15T02:08:53;0.70;99.90
12588;DHT22;6359;51.450;7.346;2023-02-15T02:11:20;0.50;99.90
12588;DHT22;6359;51.450;7.346;2023-02-15T02:13:47;0.50;99.90
12588;DHT22;6359;51.450;7.346;2023-02-15T02:16:17;0.60;99.90
12588;DHT22;6359;51.450;7.346;2023-02-15T02:19:01;0.60;99.90
12588;DHT22;6359;51.450;7.346;2023-02-15T02:25:24;0.70;99.90
12588;DHT22;6359;51.450;7.346;2023-02-15T02:27:58;0.50;99.90
12588;DHT22;6359;51.450;7.346;2023-02-15T02:30:41;0.30;99.90
12588;DHT22;6359;51.450;7.346;2023-02-15T02:36:13;0.20;99.90
12588;DHT22;6359;51.450;7.346;2023-02-15T02:38:49;0.10;99.90
12588;DHT22;6359;51.450;7.346;2023-02-15T02:41:24;0.00;99.90
12588;DHT22;6359;51.450;7.346;2023-02-15T02:43:59;-0.10;99.90
12588;DHT22;6359;51.450;7.346;2023-02-15T02:46:32;-0.20;99.90
12588;DHT22;6359;51.450;7.346;2023-02-15T02:49:02;-0.20;99.90
12588;DHT22;6359;51.450;7.346;2023-02-15T02:51:29;-0.20;99.90
12588;DHT22;6359;51.450;7.346;2023-02-15T02:53:59;-0.20;99.90
12588;DHT22;6359;51.450;7.346;2023-02-15T02:56:30;-0.30;99.90
12588;DHT22;6359;51.450;7.346;2023-02-15T02:59:00;-0.30;99.90
12588;DHT22;6359;51.450;7.346;2023-02-15T03:01:31;-0.40;99.90
12588;DHT22;6359;51.450;7.346;2023-02-15T03:04:02;-0.50;99.90
12588;DHT22;6359;51.450;7.346;2023-02-15T03:06:35;-0.50;99.90
12588;DHT22;6359;51.450;7.346;2023-02-15T03:09:09;-0.40;99.90
12588;DHT22;6359;51.450;7.346;2023-02-15T03:11:40;-0.30;99.90
12588;DHT22;6359;51.450;7.346;2023-02-15T03:14:08;-0.10;99.90
12588;DHT22;6359;51.450;7.346;2023-02-15T03:16:35;-0.10;99.90
12588;DHT22;6359;51.450;7.346;2023-02-15T03:19:08;-0.10;99.90
12588;DHT22;6359;51.450;7.346;2023-02-15T03:21:38;-0.20;99.90
12588;DHT22;6359;51.450;7.346;2023-02-15T03:24:09;-0.20;99.90
12588;DHT22;6359;51.450;7.346;2023-02-15T03:26:38;-0.30;99.90
12588;DHT22;6359;51.450;7.346;2023-02-15T03:29:07;-0.30;99.90
12588;DHT22;6359;51.450;7.346;2023-02-15T03:31:38;-0.30;99.90
12588;DHT22;6359;51.450;7.346;2023-02-15T03:34:10;-0.30;99.90
12588;DHT22;6359;51.450;7.346;2023-02-15T03:36:43;-0.30;99.90
12588;DHT22;6359;51.450;7.346;2023-02-15T03:39:17;-0.30;99.90
12588;DHT22;6359;51.450;7.346;2023-02-15T03:41:54;-0.30;99.90
12588;DHT22;6359;51.450;7.346;2023-02-15T03:44:27;-0.30;99.90
12588;DHT22;6359;51.450;7.346;2023-02-15T03:47:00;-0.40;99.90
12588;DHT22;6359;51.450;7.346;2023-02-15T03:49:36;-0.30;99.90
12588;DHT22;6359;51.450;7.346;2023-02-15T03:52:05;-0.40;99.90
12588;DHT22;6359;51.450;7.346;2023-02-15T03:54:34;-0.30;99.90
12588;DHT22;6359;51.450;7.346;2023-02-15T03:57:17;-0.40;99.90
12588;DHT22;6359;51.450;7.346;2023-02-15T04:00:05;-0.40;99.90
12588;DHT22;6359;51.450;7.346;2023-02-15T04:03:04;-0.50;99.90
12588;DHT22;6359;51.450;7.346;2023-02-15T04:05:34;-0.60;99.90
12588;DHT22;6359;51.450;7.346;2023-02-15T04:08:01;-0.60;99.90
12588;DHT22;6359;51.450;7.346;2023-02-15T04:10:28;-0.60;99.90
12588;DHT22;6359;51.450;7.346;2023-02-15T04:13:13;-0.60;99.90
12588;DHT22;6359;51.450;7.346;2023-02-15T04:15:39;-0.60;99.90
12588;DHT22;6359;51.450;7.346;2023-02-15T04:18:24;-0.60;99.90
12588;DHT22;6359;51.450;7.346;2023-02-15T04:21:09;-0.60;99.90
12588;DHT22;6359;51.450;7.346;2023-02-15T04:23:54;-0.50;99.90
12588;DHT22;6359;51.450;7.346;2023-02-15T04:26:38;-0.50;99.90
12588;DHT22;6359;51.450;7.346;2023-02-15T04:29:05;-0.60;99.90
12588;DHT22;6359;51.450;7.346;2023-02-15T04:31:32;-0.70;99.90
12588;DHT22;6359;51.450;7.346;2023-02-15T04:33:58;-0.70;99.90
12588;DHT22;6359;51.450;7.346;2023-02-15T04:36:27;-0.70;99.90
12588;DHT22;6359;51.450;7.346;2023-02-15T04:38:54;-0.80;99.90
12588;DHT22;6359;51.450;7.346;2023-02-15T04:41:21;-0.80;99.90
12588;DHT22;6359;51.450;7.346;2023-02-15T04:43:47;-0.70;99.90
12588;DHT22;6359;51.450;7.346;2023-02-15T04:46:14;-0.70;99.90
12588;DHT22;6359;51.450;7.346;2023-02-15T04:48:41;-0.70;99.90
12588;DHT22;6359;51.450;7.346;2023-02-15T04:51:09;-0.80;99.90
12588;DHT22;6359;51.450;7.346;2023-02-15T04:53:37;-0.90;99.90
12588;DHT22;6359;51.450;7.346;2023-02-15T04:56:04;-0.90;99.90
12588;DHT22;6359;51.450;7.346;2023-02-15T04:58:31;-0.90;99.90
12588;DHT22;6359;51.450;7.346;2023-02-15T05:00:58;-0.90;99.90
12588;DHT22;6359;51.450;7.346;2023-02-15T05:03:25;-1.00;99.90
12588;DHT22;6359;51.450;7.346;2023-02-15T05:05:52;-1.00;99.90
12588;DHT22;6359;51.450;7.346;2023-02-15T05:08:19;-1.10;99.90
12588;DHT22;6359;51.450;7.346;2023-02-15T05:10:48;-1.10;99.90
12588;DHT22;6359;51.450;7.346;2023-02-15T05:13:16;-1.10;99.90
12588;DHT22;6359;51.450;7.346;2023-02-15T05:15:47;-1.10;99.90
12588;DHT22;6359;51.450;7.346;2023-02-15T05:18:15;-1.10;99.90
12588;DHT22;6359;51.450;7.346;2023-02-15T05:20:42;-1.10;99.90
12588;DHT22;6359;51.450;7.346;2023-02-15T05:23:09;-1.00;99.90
12588;DHT22;6359;51.450;7.346;2023-02-15T05:25:36;-1.10;99.90
12588;DHT22;6359;51.450;7.346;2023-02-15T05:28:23;-1.20;99.90
12588;DHT22;6359;51.450;7.346;2023-02-15T05:30:59;-1.20;99.90
12588;DHT22;6359;51.450;7.346;2023-02-15T05:33:27;-1.20;99.90
12588;DHT22;6359;51.450;7.346;2023-02-15T05:35:54;-1.20;99.90
12588;DHT22;6359;51.450;7.346;2023-02-15T05:38:21;-1.30;99.90
12588;DHT22;6359;51.450;7.346;2023-02-15T05:40:48;-1.30;99.90
12588;DHT22;6359;51.450;7.346;2023-02-15T05:43:14;-1.30;99.90
12588;DHT22;6359;51.450;7.346;2023-02-15T05:45:45;-1.40;99.90
12588;DHT22;6359;51.450;7.346;2023-02-15T05:48:12;-1.40;99.90
12588;DHT22;6359;51.450;7.346;2023-02-15T05:50:39;-1.40;99.90
12588;DHT22;6359;51.450;7.346;2023-02-15T05:53:06;-1.40;99.90
12588;DHT22;6359;51.450;7.346;2023-02-15T05:55:33;-1.40;99.90
12588;DHT22;6359;51.450;7.346;2023-02-15T05:57:59;-1.40;99.90
12588;DHT22;6359;51.450;7.346;2023-02-15T06:00:26;-1.30;99.90
12588;DHT22;6359;51.450;7.346;2023-02-15T06:02:55;-1.20;99.90
12588;DHT22;6359;51.450;7.346;2023-02-15T06:05:23;-1.20;99.90
12588;DHT22;6359;51.450;7.346;2023-02-15T06:07:49;-1.10;99.90
12588;DHT22;6359;51.450;7.346;2023-02-15T06:10:16;-1.10;99.90
12588;DHT22;6359;51.450;7.346;2023-02-15T06:12:44;-1.10;99.90
12588;DHT22;6359;51.450;7.346;2023-02-15T06:15:11;-1.10;99.90
12588;DHT22;6359;51.450;7.346;2023-02-15T06:17:40;-1.10;99.90
12588;DHT22;6359;51.450;7.346;2023-02-15T06:20:10;-1.20;99.90
12588;DHT22;6359;51.450;7.346;2023-02-15T06:22:37;-1.30;99.90
12588;DHT22;6359;51.450;7.346;2023-02-15T06:25:04;-1.30;99.90
12588;DHT22;6359;51.450;7.346;2023-02-15T06:27:31;-1.20;99.90
12588;DHT22;6359;51.450;7.346;2023-02-15T06:29:58;-1.30;99.90
12588;DHT22;6359;51.450;7.346;2023-02-15T06:32:25;-1.30;99.90
12588;DHT22;6359;51.450;7.346;2023-02-15T06:34:51;-1.30;99.90
12588;DHT22;6359;51.450;7.346;2023-02-15T06:37:20;-1.40;99.90
12588;DHT22;6359;51.450;7.346;2023-02-15T06:39:47;-1.20;99.90
12588;DHT22;6359;51.450;7.346;2023-02-15T06:42:13;-1.40;99.90
12588;DHT22;6359;51.450;7.346;2023-02-15T06:44:40;-1.30;99.90
12588;DHT22;6359;51.450;7.346;2023-02-15T06:47:07;-1.30;99.90
12588;DHT22;6359;51.450;7.346;2023-02-15T06:49:34;-1.20;99.90
12588;DHT22;6359;51.450;7.346;2023-02-15T06:52:01;-1.20;99.90
12588;DHT22;6359;51.450;7.346;2023-02-15T06:54:29;-1.10;99.90
12588;DHT22;6359;51.450;7.346;2023-02-15T06:56:56;-1.10;99.90
12588;DHT22;6359;51.450;7.346;2023-02-15T06:59:23;-1.00;99.90
12588;DHT22;6359;51.450;7.346;2023-02-15T07:01:50;-1.10;99.90
12588;DHT22;6359;51.450;7.346;2023-02-15T07:04:16;-1.10;99.90
12588;DHT22;6359;51.450;7.346;2023-02-15T07:06:43;-1.00;99.90
12588;DHT22;6359;51.450;7.346;2023-02-15T07:09:11;-1.00;99.90
12588;DHT22;6359;51.450;7.346;2023-02-15T07:11:39;-0.90;99.90
12588;DHT22;6359;51.450;7.346;2023-02-15T07:14:24;-0.90;99.90
12588;DHT22;6359;51.450;7.346;2023-02-15T07:16:50;-0.70;99.90
12588;DHT22;6359;51.450;7.346;2023-02-15T07:19:17;-0.70;99.90
12588;DHT22;6359;51.450;7.346;2023-02-15T07:21:44;-0.60;99.90
12588;DHT22;6359;51.450;7.346;2023-02-15T07:24:12;-0.50;99.90
12588;DHT22;6359;51.450;7.346;2023-02-15T07:26:40;-0.30;99.90
12588;DHT22;6359;51.450;7.346;2023-02-15T07:29:07;-0.20;99.90
12588;DHT22;6359;51.450;7.346;2023-02-15T07:31:34;-0.20;99.90
12588;DHT22;6359;51.450;7.346;2023-02-15T07:34:00;0.00;99.90
12588;DHT22;6359;51.450;7.346;2023-02-15T07:36:27;0.00;99.90
12588;DHT22;6359;51.450;7.346;2023-02-15T07:38:54;0.20;99.90
12588;DHT22;6359;51.450;7.346;2023-02-15T07:41:21;0.40;99.90
12588;DHT22;6359;51.450;7.346;2023-02-15T07:43:50;0.70;99.90
12588;DHT22;6359;51.450;7.346;2023-02-15T07:46:17;0.80;99.90
12588;DHT22;6359;51.450;7.346;2023-02-15T07:48:45;1.00;99.90
12588;DHT22;6359;51.450;7.346;2023-02-15T07:51:13;1.20;99.90
12588;DHT22;6359;51.450;7.346;2023-02-15T07:53:40;1.40;99.90
12588;DHT22;6359;51.450;7.346;2023-02-15T07:56:09;1.70;99.90
12588;DHT22;6359;51.450;7.346;2023-02-15T07:58:37;2.00;99.90
12588;DHT22;6359;51.450;7.346;2023-02-15T08:01:24;2.30;99.90
12588;DHT22;6359;51.450;7.346;2023-02-15T08:03:51;2.50;99.90
12588;DHT22;6359;51.450;7.346;2023-02-15T08:06:19;2.70;99.90
12588;DHT22;6359;51.450;7.346;2023-02-15T08:08:45;3.20;99.90
12588;DHT22;6359;51.450;7.346;2023-02-15T08:11:18;4.80;99.90
12588;DHT22;6359;51.450;7.346;2023-02-15T08:14:04;6.70;99.90
12588;DHT22;6359;51.450;7.346;2023-02-15T08:16:35;8.40;99.90
12588;DHT22;6359;51.450;7.346;2023-02-15T08:19:05;10.00;99.90
12588;DHT22;6359;51.450;7.346;2023-02-15T08:21:32;11.30;99.90
12588;DHT22;6359;51.450;7.346;2023-02-15T08:23:59;12.00;99.90
12588;DHT22;6359;51.450;7.346;2023-02-15T08:26:28;12.80;99.90
12588;DHT22;6359;51.450;7.346;2023-02-15T08:28:56;12.70;99.90
12588;DHT22;6359;51.450;7.346;2023-02-15T08:31:23;11.60;99.90
12588;DHT22;6359;51.450;7.346;2023-02-15T08:33:53;11.00;99.90
12588;DHT22;6359;51.450;7.346;2023-02-15T08:36:21;10.00;99.90
12588;DHT22;6359;51.450;7.346;2023-02-15T08:38:49;9.80;99.90
12588;DHT22;6359;51.450;7.346;2023-02-15T08:41:17;10.70;99.90
12588;DHT22;6359;51.450;7.346;2023-02-15T08:43:46;11.60;99.90
12588;DHT22;6359;51.450;7.346;2023-02-15T08:46:14;12.30;99.90
12588;DHT22;6359;51.450;7.346;2023-02-15T08:48:42;13.00;99.90
12588;DHT22;6359;51.450;7.346;2023-02-15T08:51:12;12.80;99.90
12588;DHT22;6359;51.450;7.346;2023-02-15T08:53:40;13.10;99.90
12588;DHT22;6359;51.450;7.346;2023-02-15T08:56:08;13.30;99.90
12588;DHT22;6359;51.450;7.346;2023-02-15T08:58:35;14.00;99.90
12588;DHT22;6359;51.450;7.346;2023-02-15T09:01:09;13.80;99.90
12588;DHT22;6359;51.450;7.346;2023-02-15T09:03:36;14.40;99.90
12588;DHT22;6359;51.450;7.346;2023-02-15T09:06:03;14.80;99.90
12588;DHT22;6359;51.450;7.346;2023-02-15T09:08:32;15.10;99.90
12588;DHT22;6359;51.450;7.346;2023-02-15T09:11:09;15.30;99.90
12588;DHT22;6359;51.450;7.346;2023-02-15T09:13:37;15.70;99.90
12588;DHT22;6359;51.450;7.346;2023-02-15T09:16:06;16.50;99.90
12588;DHT22;6359;51.450;7.346;2023-02-15T09:18:36;16.70;99.90
12588;DHT22;6359;51.450;7.346;2023-02-15T09:21:05;16.50;99.90
12588;DHT22;6359;51.450;7.346;2023-02-15T09:23:33;16.70;99.90
12588;DHT22;6359;51.450;7.346;2023-02-15T09:26:05;17.50;99.90
12588;DHT22;6359;51.450;7.346;2023-02-15T09:28:32;17.20;99.90
12588;DHT22;6359;51.450;7.346;2023-02-15T09:31:10;17.20;99.90
12588;DHT22;6359;51.450;7.346;2023-02-15T09:33:38;16.80;99.90
12588;DHT22;6359;51.450;7.346;2023-02-15T09:36:15;17.00;99.90
12588;DHT22;6359;51.450;7.346;2023-02-15T09:38:43;16.90;99.90
12588;DHT22;6359;51.450;7.346;2023-02-15T09:41:34;17.20;99.90
12588;DHT22;6359;51.450;7.346;2023-02-15T09:44:11;17.50;99.90
12588;DHT22;6359;51.450;7.346;2023-02-15T09:46:55;17.50;99.90
12588;DHT22;6359;51.450;7.346;2023-02-15T09:49:32;17.60;99.90
12588;DHT22;6359;51.450;7.346;2023-02-15T09:52:14;17.40;99.90
12588;DHT22;6359;51.450;7.346;2023-02-15T09:54:55;17.70;99.90
12588;DHT22;6359;51.450;7.346;2023-02-15T09:57:30;18.00;99.90
12588;DHT22;6359;51.450;7.346;2023-02-15T10:00:05;17.90;99.90
12588;DHT22;6359;51.450;7.346;2023-02-15T10:02:45;17.70;99.90
12588;DHT22;6359;51.450;7.346;2023-02-15T10:05:25;17.50;99.90
12588;DHT22;6359;51.450;7.346;2023-02-15T10:08:26;17.50;99.90
12588;DHT22;6359;51.450;7.346;2023-02-15T10:11:05;17.90;99.90
12588;DHT22;6359;51.450;7.346;2023-02-15T10:13:56;18.30;99.90
12588;DHT22;6359;51.450;7.346;2023-02-15T10:16:31;18.50;99.90
12588;DHT22;6359;51.450;7.346;2023-02-15T10:19:05;18.80;99.90
12588;DHT22;6359;51.450;7.346;2023-02-15T10:21:43;18.50;99.90
12588;DHT22;6359;51.450;7.346;2023-02-15T10:27:22;19.00;99.90
12588;DHT22;6359;51.450;7.346;2023-02-15T10:29:59;18.90;99.90
12588;DHT22;6359;51.450;7.346;2023-02-15T10:32:34;18.60;99.90
12588;DHT22;6359;51.450;7.346;2023-02-15T10:35:12;18.50;99.90
12588;DHT22;6359;51.450;7.346;2023-02-15T10:37:57;18.60;99.90
12588;DHT22;6359;51.450;7.346;2023-02-15T10:40:33;19.00;99.90
12588;DHT22;6359;51.450;7.346;2023-02-15T10:43:39;19.00;99.90
12588;DHT22;6359;51.450;7.346;2023-02-15T10:46:15;18.90;99.90
12588;DHT22;6359;51.450;7.346;2023-02-15T10:51:56;18.80;99.90
12588;DHT22;6359;51.450;7.346;2023-02-15T10:54:33;19.60;99.90
12588;DHT22;6359;51.450;7.346;2023-02-15T10:57:07;19.30;99.90
12588;DHT22;6359;51.450;7.346;2023-02-15T10:59:53;18.60;99.90
12588;DHT22;6359;51.450;7.346;2023-02-15T11:02:26;18.70;99.90
12588;DHT22;6359;51.450;7.346;2023-02-15T11:05:07;18.50;99.90
12588;DHT22;6359;51.450;7.346;2023-02-15T11:07:42;18.80;99.90
12588;DHT22;6359;51.450;7.346;2023-02-15T11:10:22;18.40;99.90
12588;DHT22;6359;51.450;7.346;2023-02-15T11:12:51;18.20;99.90
12588;DHT22;6359;51.450;7.346;2023-02-15T11:15:25;18.30;99.90
12588;DHT22;6359;51.450;7.346;2023-02-15T11:17:58;18.20;99.90
12588;DHT22;6359;51.450;7.346;2023-02-15T11:20:30;18.10;99.90
12588;DHT22;6359;51.450;7.346;2023-02-15T11:22:59;18.00;99.90
12588;DHT22;6359;51.450;7.346;2023-02-15T11:25:31;18.00;99.90
12588;DHT22;6359;51.450;7.346;2023-02-15T11:28:00;18.20;99.90
12588;DHT22;6359;51.450;7.346;2023-02-15T11:30:40;18.30;99.90
12588;DHT22;6359;51.450;7.346;2023-02-15T11:33:15;18.90;99.90
12588;DHT22;6359;51.450;7.346;2023-02-15T11:35:50;18.80;99.90
12588;DHT22;6359;51.450;7.346;2023-02-15T11:38:20;18.60;99.90
12588;DHT22;6359;51.450;7.346;2023-02-15T11:40:49;18.40;99.90
12588;DHT22;6359;51.450;7.346;2023-02-15T11:43:21;18.30;99.90
12588;DHT22;6359;51.450;7.346;2023-02-15T11:45:51;17.90;99.90
12588;DHT22;6359;51.450;7.346;2023-02-15T11:48:20;17.80;99.90
12588;DHT22;6359;51.450;7.346;2023-02-15T11:50:47;17.80;99.90
12588;DHT22;6359;51.450;7.346;2023-02-15T11:53:16;17.80;99.90
12588;DHT22;6359;51.450;7.346;2023-02-15T11:55:45;17.50;99.90
12588;DHT22;6359;51.450;7.346;2023-02-15T11:58:21;17.30;99.90
12588;DHT22;6359;51.450;7.346;2023-02-15T12:00:56;17.40;99.90
12588;DHT22;6359;51.450;7.346;2023-02-15T12:03:29;17.50;99.90
12588;DHT22;6359;51.450;7.346;2023-02-15T12:06:02;17.30;99.90
12588;DHT22;6359;51.450;7.346;2023-02-15T12:08:36;17.20;99.90
12588;DHT22;6359;51.450;7.346;2023-02-15T12:11:07;17.00;99.90
12588;DHT22;6359;51.450;7.346;2023-02-15T12:13:54;16.00;99.90
12588;DHT22;6359;51.450;7.346;2023-02-15T12:16:23;16.00;99.90
12588;DHT22;6359;51.450;7.346;2023-02-15T12:18:52;16.00;99.90
12588;DHT22;6359;51.450;7.346;2023-02-15T12:21:25;15.90;99.90
12588;DHT22;6359;51.450;7.346;2023-02-15T12:23:56;15.60;99.90
12588;DHT22;6359;51.450;7.346;2023-02-15T12:26:24;15.70;99.90
12588;DHT22;6359;51.450;7.346;2023-02-15T12:28:52;15.60;99.90
12588;DHT22;6359;51.450;7.346;2023-02-15T12:31:27;15.70;99.90
12588;DHT22;6359;51.450;7.346;2023-02-15T12:33:56;15.80;99.90
12588;DHT22;6359;51.450;7.346;2023-02-15T12:36:25;15.80;99.90
12588;DHT22;6359;51.450;7.346;2023-02-15T12:39:04;15.50;99.90
12588;DHT22;6359;51.450;7.346;2023-02-15T12:41:32;15.80;99.90
12588;DHT22;6359;51.450;7.346;2023-02-15T12:44:04;15.80;99.90
12588;DHT22;6359;51.450;7.346;2023-02-15T12:46:34;15.80;99.90
12588;DHT22;6359;51.450;7.346;2023-02-15T12:49:14;15.30;99.90
12588;DHT22;6359;51.450;7.346;2023-02-15T12:51:45;15.30;99.90
12588;DHT22;6359;51.450;7.346;2023-02-15T12:57:23;15.40;99.90
12588;DHT22;6359;51.450;7.346;2023-02-15T12:59:53;15.50;99.90
12588;DHT22;6359;51.450;7.346;2023-02-15T13:02:25;15.60;99.90
12588;DHT22;6359;51.450;7.346;2023-02-15T13:04:53;15.80;99.90
12588;DHT22;6359;51.450;7.346;2023-02-15T13:07:21;15.90;99.90
12588;DHT22;6359;51.450;7.346;2023-02-15T13:09:48;15.90;99.90
12588;DHT22;6359;51.450;7.346;2023-02-15T13:12:20;15.90;99.90
12588;DHT22;6359;51.450;7.346;2023-02-15T13:14:50;16.00;99.90
12588;DHT22;6359;51.450;7.346;2023-02-15T13:17:20;16.00;99.90
12588;DHT22;6359;51.450;7.346;2023-02-15T13:19:53;16.00;99.90
12588;DHT22;6359;51.450;7.346;2023-02-15T13:22:24;15.90;99.90
12588;DHT22;6359;51.450;7.346;2023-02-15T13:24:56;16.00;99.90
12588;DHT22;6359;51.450;7.346;2023-02-15T13:27:29;16.10;99.90
12588;DHT22;6359;51.450;7.346;2023-02-15T13:30:00;16.00;99.90
12588;DHT22;6359;51.450;7.346;2023-02-15T13:32:30;16.00;99.90
12588;DHT22;6359;51.450;7.346;2023-02-15T13:35:04;15.90;99.90
12588;DHT22;6359;51.450;7.346;2023-02-15T13:37:49;15.80;99.90
12588;DHT22;6359;51.450;7.346;2023-02-15T13:40:24;15.90;99.90
12588;DHT22;6359;51.450;7.346;2023-02-15T13:42:56;16.00;99.90
12588;DHT22;6359;51.450;7.346;2023-02-15T13:45:35;16.00;99.90
12588;DHT22;6359;51.450;7.346;2023-02-15T13:48:11;16.10;99.90
12588;DHT22;6359;51.450;7.346;2023-02-15T13:50:58;16.10;99.90
12588;DHT22;6359;51.450;7.346;2023-02-15T13:53:46;16.10;99.90
12588;DHT22;6359;51.450;7.346;2023-02-15T13:56:23;16.10;99.90
12588;DHT22;6359;51.450;7.346;2023-02-15T14:01:45;15.90;99.90
12588;DHT22;6359;51.450;7.346;2023-02-15T14:04:30;16.00;99.90
12588;DHT22;6359;51.450;7.346;2023-02-15T14:07:25;16.10;99.90
12588;DHT22;6359;51.450;7.346;2023-02-15T14:10:08;16.10;99.90
12588;DHT22;6359;51.450;7.346;2023-02-15T14:12:53;16.10;99.90
12588;DHT22;6359;51.450;7.346;2023-02-15T14:15:28;16.00;99.90
12588;DHT22;6359;51.450;7.346;2023-02-15T14:18:15;16.10;99.90
12588;DHT22;6359;51.450;7.346;2023-02-15T14:20:56;16.10;99.90
12588;DHT22;6359;51.450;7.346;2023-02-15T14:23:40;16.00;99.90
12588;DHT22;6359;51.450;7.346;2023-02-15T14:26:15;16.00;99.90
12588;DHT22;6359;51.450;7.346;2023-02-15T14:28:51;16.00;99.90
12588;DHT22;6359;51.450;7.346;2023-02-15T14:31:26;15.90;99.90
12588;DHT22;6359;51.450;7.346;2023-02-15T14:33:56;15.80;99.90
12588;DHT22;6359;51.450;7.346;2023-02-15T14:36:25;15.70;99.90
12588;DHT22;6359;51.450;7.346;2023-02-15T14:39:02;15.70;99.90
12588;DHT22;6359;51.450;7.346;2023-02-15T14:41:58;15.80;99.90
12588;DHT22;6359;51.450;7.346;2023-02-15T14:44:32;15.80;99.90
12588;DHT22;6359;51.450;7.346;2023-02-15T14:47:06;15.80;99.90
12588;DHT22;6359;51.450;7.346;2023-02-15T14:49:37;15.70;99.90
12588;DHT22;6359;51.450;7.346;2023-02-15T14:52:05;15.60;99.90
12588;DHT22;6359;51.450;7.346;2023-02-15T14:54:57;15.50;99.90
12588;DHT22;6359;51.450;7.346;2023-02-15T14:57:26;15.40;99.90
12588;DHT22;6359;51.450;7.346;2023-02-15T14:59:55;15.10;99.90
12588;DHT22;6359;51.450;7.346;2023-02-15T15:02:29;14.90;99.90
12588;DHT22;6359;51.450;7.346;2023-02-15T15:05:03;14.70;99.90
12588;DHT22;6359;51.450;7.346;2023-02-15T15:07:40;14.60;99.90
12588;DHT22;6359;51.450;7.346;2023-02-15T15:10:38;14.50;99.90
12588;DHT22;6359;51.450;7.346;2023-02-15T15:13:51;14.30;99.90
12588;DHT22;6359;51.450;7.346;2023-02-15T15:16:45;14.10;99.90
12588;DHT22;6359;51.450;7.346;2023-02-15T15:22:22;13.90;99.90
12588;DHT22;6359;51.450;7.346;2023-02-15T15:24:52;13.70;99.90
12588;DHT22;6359;51.450;7.346;2023-02-15T15:27:54;13.70;99.90
12588;DHT22;6359;51.450;7.346;2023-02-15T15:30:49;13.60;99.90
12588;DHT22;6359;51.450;7.346;2023-02-15T15:34:05;13.50;99.90
12588;DHT22;6359;51.450;7.346;2023-02-15T15:37:18;13.50;99.90
12588;DHT22;6359;51.450;7.346;2023-02-15T15:40:12;13.40;99.90
12588;DHT22;6359;51.450;7.346;2023-02-15T15:42:50;13.30;99.90
12588;DHT22;6359;51.450;7.346;2023-02-15T15:48:35;13.20;99.90
12588;DHT22;6359;51.450;7.346;2023-02-15T15:51:09;13.10;99.90
12588;DHT22;6359;51.450;7.346;2023-02-15T15:53:40;13.00;99.90
12588;DHT22;6359;51.450;7.346;2023-02-15T15:56:13;12.90;99.90
12588;DHT22;6359;51.450;7.346;2023-02-15T15:58:44;12.90;99.90
12588;DHT22;6359;51.450;7.346;2023-02-15T16:01:12;12.90;99.90
12588;DHT22;6359;51.450;7.346;2023-02-15T16:03:50;12.80;99.90
12588;DHT22;6359;51.450;7.346;2023-02-15T16:06:34;12.70;99.90
12588;DHT22;6359;51.450;7.346;2023-02-15T16:09:13;12.60;99.90
12588;DHT22;6359;51.450;7.346;2023-02-15T16:11:43;12.50;99.90
12588;DHT22;6359;51.450;7.346;2023-02-15T16:14:14;12.50;99.90
12588;DHT22;6359;51.450;7.346;2023-02-15T16:16:47;12.40;99.90
12588;DHT22;6359;51.450;7.346;2023-02-15T16:19:24;12.40;99.90
12588;DHT22;6359;51.450;7.346;2023-02-15T16:21:53;12.30;99.90
12588;DHT22;6359;51.450;7.346;2023-02-15T16:27:35;12.00;99.90
12588;DHT22;6359;51.450;7.346;2023-02-15T16:30:24;11.80;99.90
12588;DHT22;6359;51.450;7.346;2023-02-15T16:32:53;11.70;99.90
12588;DHT22;6359;51.450;7.346;2023-02-15T16:35:22;11.60;99.90
12588;DHT22;6359;51.450;7.346;2023-02-15T16:37:50;11.50;99.90
12588;DHT22;6359;51.450;7.346;2023-02-15T16:40:37;11.40;99.90
12588;DHT22;6359;51.450;7.346;2023-02-15T16:43:12;11.40;99.90
12588;DHT22;6359;51.450;7.346;2023-02-15T16:45:40;11.40;99.90
12588;DHT22;6359;51.450;7.346;2023-02-15T16:48:11;11.30;99.90
12588;DHT22;6359;51.450;7.346;2023-02-15T16:50:47;11.20;99.90